Time;durP1;ratioP1;P1;durP2;ratioP2;P2;SDS_P1;SDS_P2;PMS_P1;PMS_P2;Temp;Humidity;BMP_temperature;BMP_pressure;BME280_temperature;BME280_humidity;BME280_pressure;Samples;Min_cycle;Max_cycle;Signal;HPM_P1;HPM_P2
2022/10/21 00:01:04;;;;;;;22.00;13.70;;;;;;;6.86;57.85;99651.95;224584;1248;139053;-62
2022/10/21 00:06:13;;;;;;;26.80;13.80;;;;;;;6.80;57.78;99656.77;224608;1237;139875;-61
2022/10/21 00:11:16;;;;;;;25.80;14.10;;;;;;;6.72;58.05;99654.25;224906;1238;139190;-62
2022/10/21 00:16:19;;;;;;;24.00;13.80;;;;;;;6.65;58.02;99647.06;224608;1244;139140;-62
2022/10/21 00:21:22;;;;;;;19.50;13.80;;;;;;;6.62;58.42;99657.74;224010;1250;139474;-62
2022/10/21 00:26:25;;;;;;;24.60;14.00;;;;;;;6.61;58.17;99654.61;223823;1246;139459;-62
2022/10/21 00:31:29;;;;;;;21.80;13.30;;;;;;;6.64;58.31;99644.99;224660;1253;140425;-61
2022/10/21 00:36:32;;;;;;;23.70;14.10;;;;;;;6.64;58.18;99636.33;224571;1238;139811;-62
2022/10/21 00:41:35;;;;;;;25.00;14.90;;;;;;;6.63;58.26;99622.11;224018;1245;139265;-62
2022/10/21 00:46:59;;;;;;;25.80;16.00;;;;;;;6.58;57.98;99610.83;223920;1241;139542;-63
2022/10/21 00:52:07;;;;;;;22.30;15.40;;;;;;;6.49;57.99;99602.50;224014;1245;139275;-63
2022/10/21 00:57:10;;;;;;;23.30;14.80;;;;;;;6.43;58.13;99592.69;223960;1247;139176;-62
2022/10/21 01:02:13;;;;;;;26.20;15.40;;;;;;;6.40;58.43;99576.05;224585;1245;139449;-61
2022/10/21 01:07:17;;;;;;;23.30;14.70;;;;;;;6.41;58.33;99560.86;223939;1245;139141;-63
2022/10/21 01:12:58;;;;;;;25.10;14.50;;;;;;;6.42;58.13;99574.42;224012;1255;139028;-63
2022/10/21 01:18:22;;;;;;;22.10;14.60;;;;;;;6.32;57.84;99580.94;223866;1254;139423;-62
2022/10/21 01:23:45;;;;;;;22.80;14.80;;;;;;;6.18;58.09;99575.10;224132;1252;139594;-61
2022/10/21 01:28:57;;;;;;;22.60;14.70;;;;;;;6.12;58.49;99560.84;224805;1238;139920;-60
2022/10/21 01:34:24;;;;;;;21.00;14.00;;;;;;;6.11;58.51;99551.38;224023;1253;139617;-61
2022/10/21 01:39:34;;;;;;;22.40;14.40;;;;;;;6.09;58.81;99560.96;223917;1248;139359;-61
2022/10/21 01:44:41;;;;;;;25.50;15.10;;;;;;;6.06;58.58;99559.48;224472;1236;138649;-60
2022/10/21 01:49:59;;;;;;;24.30;14.40;;;;;;;6.03;58.76;99563.99;223911;1254;138994;-60
2022/10/21 01:55:07;;;;;;;24.20;14.30;;;;;;;5.99;58.54;99563.44;223840;1255;139627;-61
2022/10/21 02:00:11;;;;;;;22.20;14.10;;;;;;;5.96;58.78;99558.83;223783;1252;139716;-61
2022/10/21 02:05:21;;;;;;;12.60;7.60;;;;;;;5.92;58.86;99556.59;224114;1254;139306;-61
2022/10/21 02:10:28;;;;;;;23.20;13.20;;;;;;;5.84;58.82;99556.52;223994;1254;139141;-61
2022/10/21 02:15:33;;;;;;;27.00;15.00;;;;;;;5.78;59.10;99555.31;224003;1254;139519;-61
2022/10/21 02:20:41;;;;;;;22.70;13.90;;;;;;;5.83;59.37;99557.59;223940;1253;140235;-61
2022/10/21 02:25:47;;;;;;;29.70;14.10;;;;;;;5.92;59.28;99556.80;223954;1255;140148;-61
2022/10/21 02:31:05;;;;;;;27.10;16.30;;;;;;;5.95;58.96;99555.50;223986;1250;139340;-60
2022/10/21 02:36:11;;;;;;;28.80;16.10;;;;;;;5.86;58.87;99552.41;224049;1250;139574;-61
2022/10/21 02:41:20;;;;;;;30.00;16.00;;;;;;;5.79;58.81;99542.42;224639;1243;139365;-61
2022/10/21 02:46:23;;;;;;;31.80;17.00;;;;;;;5.72;58.77;99531.75;224044;1252;140135;-61
2022/10/21 02:51:26;;;;;;;27.10;15.30;;;;;;;5.66;58.70;99538.83;223981;1254;141884;-61
2022/10/21 02:56:30;;;;;;;25.10;15.40;;;;;;;5.59;58.83;99527.98;223875;1254;140550;-64
2022/10/21 03:01:32;;;;;;;23.60;15.50;;;;;;;5.53;58.81;99509.19;223842;1244;139522;-63
2022/10/21 03:06:35;;;;;;;24.40;15.40;;;;;;;5.48;58.90;99508.30;224561;1250;139995;-63
2022/10/21 03:11:38;;;;;;;71.70;43.80;;;;;;;5.42;58.90;99511.14;224017;1254;139053;-62
2022/10/21 03:16:41;;;;;;;25.30;16.40;;;;;;;5.44;59.48;99517.73;223969;1254;139422;-62
2022/10/21 03:21:44;;;;;;;24.50;15.30;;;;;;;5.43;59.00;99511.60;224024;1251;138760;-63
2022/10/21 03:26:47;;;;;;;23.00;15.40;;;;;;;5.40;59.49;99515.08;224003;1241;138884;-62
2022/10/21 03:31:50;;;;;;;25.60;14.90;;;;;;;5.38;59.28;99512.31;224064;1254;139128;-62
2022/10/21 03:36:53;;;;;;;24.60;15.50;;;;;;;5.34;59.26;99500.15;224668;1243;139723;-62
2022/10/21 03:41:57;;;;;;;23.20;15.00;;;;;;;5.29;59.76;99481.47;223859;1253;139318;-62
2022/10/21 03:47:00;;;;;;;29.50;15.20;;;;;;;5.29;59.66;99486.23;223890;1254;139230;-64
2022/10/21 03:52:03;;;;;;;24.50;13.60;;;;;;;5.25;59.51;99496.05;224628;1239;139954;-63
2022/10/21 03:57:06;;;;;;;25.10;14.60;;;;;;;5.17;59.38;99488.54;224007;1257;139491;-63
2022/10/21 04:02:09;;;;;;;24.10;14.50;;;;;;;5.13;59.60;99484.09;223924;1253;140530;-63
2022/10/21 04:07:12;;;;;;;25.80;15.30;;;;;;;5.19;59.87;99478.81;223969;1257;140385;-62
2022/10/21 04:12:15;;;;;;;26.70;15.90;;;;;;;5.26;59.61;99474.73;223952;1251;141822;-60
2022/10/21 04:17:18;;;;;;;27.90;17.00;;;;;;;5.24;59.61;99468.64;224043;1254;139574;-60
2022/10/21 04:22:22;;;;;;;31.40;16.80;;;;;;;5.22;59.58;99451.27;224642;1244;139731;-61
2022/10/21 04:27:24;;;;;;;26.10;15.80;;;;;;;5.21;59.54;99445.52;223887;1254;139834;-61
2022/10/21 04:32:27;;;;;;;27.00;16.60;;;;;;;5.17;59.53;99442.47;224491;1247;140370;-62
2022/10/21 04:37:30;;;;;;;27.60;15.60;;;;;;;5.11;59.22;99437.40;223924;1250;139081;-63
2022/10/21 04:42:33;;;;;;;23.80;15.70;;;;;;;5.05;59.57;99433.73;223937;1244;138891;-62
2022/10/21 04:47:36;;;;;;;25.00;15.60;;;;;;;5.01;59.65;99431.93;224154;1257;139335;-61
2022/10/21 04:52:40;;;;;;;24.90;15.50;;;;;;;4.97;59.83;99425.55;223952;1255;138959;-61
2022/10/21 04:57:43;;;;;;;23.50;14.70;;;;;;;4.98;60.11;99425.17;223898;1248;138755;-61
2022/10/21 05:02:46;;;;;;;27.80;15.70;;;;;;;4.98;59.96;99430.80;224619;1244;139233;-62
2022/10/21 05:07:49;;;;;;;24.70;15.70;;;;;;;4.98;60.12;99427.27;224523;1245;139338;-62
2022/10/21 05:12:52;;;;;;;21.50;14.50;;;;;;;4.95;59.99;99420.69;223958;1251;139299;-61
2022/10/21 05:17:55;;;;;;;25.90;16.30;;;;;;;4.92;59.84;99412.72;224016;1254;139151;-62
2022/10/21 05:22:58;;;;;;;25.60;16.70;;;;;;;4.86;59.59;99415.39;224033;1251;139653;-62
2022/10/21 05:28:01;;;;;;;28.40;15.90;;;;;;;4.80;59.87;99420.47;224390;1240;140047;-62
2022/10/21 05:33:05;;;;;;;25.40;15.10;;;;;;;4.76;59.90;99423.77;224695;1248;139106;-62
2022/10/21 05:38:08;;;;;;;30.70;16.00;;;;;;;4.81;60.34;99435.39;224039;1247;140961;-62
2022/10/21 05:43:11;;;;;;;28.90;17.20;;;;;;;4.93;60.34;99444.32;224517;1247;139704;-62
2022/10/21 05:48:17;;;;;;;29.20;16.10;;;;;;;5.03;60.20;99442.77;224034;1254;139270;-62
2022/10/21 05:53:22;;;;;;;31.90;17.90;;;;;;;5.09;60.38;99439.39;224703;1247;139663;-61
2022/10/21 05:58:26;;;;;;;27.20;16.40;;;;;;;5.20;60.50;99437.45;223934;1254;139084;-61
2022/10/21 06:03:31;;;;;;;23.50;15.90;;;;;;;5.30;60.72;99439.74;224634;1246;139043;-61
2022/10/21 06:08:37;;;;;;;24.40;16.00;;;;;;;5.43;61.12;99434.91;224026;1254;139416;-61
2022/10/21 06:13:41;;;;;;;26.20;15.10;;;;;;;5.58;61.14;99436.67;223925;1247;139403;-61
2022/10/21 06:18:44;;;;;;;27.00;16.30;;;;;;;5.73;61.24;99428.92;223974;1254;139472;-61
2022/10/21 06:23:52;;;;;;;23.40;15.80;;;;;;;5.85;60.87;99407.70;224561;1244;139062;-61
2022/10/21 06:28:56;;;;;;;26.10;17.00;;;;;;;5.93;60.66;99410.79;224124;1254;140074;-61
2022/10/21 06:33:59;;;;;;;27.90;15.00;;;;;;;5.98;60.54;99437.19;224011;1250;139109;-60
2022/10/21 06:39:04;;;;;;;25.70;14.20;;;;;;;6.03;60.53;99477.52;224498;1243;139334;-60
2022/10/21 06:44:07;;;;;;;25.10;14.50;;;;;;;6.08;60.26;99473.80;223880;1254;139332;-61
2022/10/21 06:49:10;;;;;;;24.10;14.20;;;;;;;6.16;60.61;99475.30;224011;1254;139581;-61
2022/10/21 06:54:13;;;;;;;21.70;14.50;;;;;;;6.25;60.69;99474.05;223986;1248;139809;-61
2022/10/21 06:59:16;;;;;;;23.90;15.00;;;;;;;6.37;60.85;99457.39;224759;1241;139353;-61
2022/10/21 07:04:19;;;;;;;27.20;15.60;;;;;;;6.50;60.89;99461.83;223958;1254;138843;-63
2022/10/21 07:09:22;;;;;;;23.50;15.20;;;;;;;6.66;60.64;99462.45;224010;1253;140060;-61
2022/10/21 07:14:25;;;;;;;21.60;14.90;;;;;;;6.79;60.53;99470.95;223996;1248;139465;-63
2022/10/21 07:19:28;;;;;;;23.60;14.80;;;;;;;6.90;60.67;99462.52;224019;1254;139553;-62
2022/10/21 07:24:31;;;;;;;24.40;14.80;;;;;;;6.99;60.41;99447.00;223972;1254;139389;-60
2022/10/21 07:29:34;;;;;;;27.80;14.60;;;;;;;7.03;60.21;99456.55;223855;1249;139463;-62
2022/10/21 07:34:37;;;;;;;22.60;14.00;;;;;;;7.04;60.10;99445.73;223868;1254;140082;-63
2022/10/21 07:39:40;;;;;;;23.00;14.20;;;;;;;7.06;60.11;99444.78;223916;1246;139446;-63
2022/10/21 07:44:43;;;;;;;86.70;51.80;;;;;;;7.09;60.16;99447.50;223911;1249;139936;-62
2022/10/21 07:49:46;;;;;;;37.20;20.20;;;;;;;7.21;60.59;99435.50;223920;1254;138962;-62
2022/10/21 07:54:49;;;;;;;27.30;17.00;;;;;;;7.35;60.25;99434.39;223923;1246;139126;-63
2022/10/21 07:59:55;;;;;;;28.60;15.70;;;;;;;7.40;60.04;99427.48;223958;1251;139103;-62
2022/10/21 08:04:58;;;;;;;28.30;16.10;;;;;;;7.45;60.15;99421.63;224061;1251;140245;-62
2022/10/21 08:10:01;;;;;;;27.50;16.30;;;;;;;7.51;60.20;99408.98;223860;1250;140048;-63
2022/10/21 08:15:04;;;;;;;25.60;16.90;;;;;;;7.64;60.21;99396.77;224559;1238;139116;-63
2022/10/21 08:20:08;;;;;;;30.70;16.20;;;;;;;7.76;60.31;99389.72;224398;1241;140329;-62
2022/10/21 08:25:15;;;;;;;35.30;17.60;;;;;;;7.90;60.20;99381.09;223927;1250;139083;-62
2022/10/21 08:30:18;;;;;;;38.10;17.20;;;;;;;8.10;60.30;99378.23;224559;1237;139746;-63
2022/10/21 08:35:21;;;;;;;36.00;17.70;;;;;;;8.27;60.04;99378.51;224029;1251;140030;-63
2022/10/21 08:40:24;;;;;;;33.30;17.60;;;;;;;8.44;60.12;99368.73;223946;1254;139608;-64
2022/10/21 08:45:37;;;;;;;35.00;17.70;;;;;;;8.59;60.14;99361.81;224315;1244;138986;-62
2022/10/21 08:50:46;;;;;;;36.40;16.60;;;;;;;8.77;59.90;99339.17;223970;1246;139356;-62
2022/10/21 08:55:51;;;;;;;32.60;16.80;;;;;;;8.97;60.15;99335.33;224579;1244;139898;-64
2022/10/21 09:01:09;;;;;;;28.10;16.10;;;;;;;9.19;60.05;99334.21;223883;1245;139158;-62
2022/10/21 09:06:18;;;;;;;34.00;16.80;;;;;;;9.41;59.91;99334.11;223937;1253;139605;-62
2022/10/21 09:11:33;;;;;;;42.70;17.90;;;;;;;9.61;59.82;99333.23;224724;1245;139350;-62
2022/10/21 09:16:57;;;;;;;31.20;16.00;;;;;;;9.81;59.74;99325.77;223975;1251;138565;-62
2022/10/21 09:22:06;;;;;;;40.20;18.30;;;;;;;10.02;59.56;99315.39;223865;1252;139458;-62
2022/10/21 09:27:30;;;;;;;44.00;19.30;;;;;;;10.19;59.41;99314.30;224601;1244;139510;-63
2022/10/21 09:32:58;;;;;;;39.20;19.30;;;;;;;10.36;59.44;99310.17;223923;1246;140050;-63
2022/10/21 09:38:12;;;;;;;49.70;20.90;;;;;;;10.53;59.24;99307.41;224535;1238;139686;-62
2022/10/21 09:43:19;;;;;;;53.90;21.20;;;;;;;10.67;59.05;99291.88;224528;1239;140110;-62
2022/10/21 09:48:31;;;;;;;49.10;24.20;;;;;;;10.76;58.27;99289.63;224097;1245;139492;-62
2022/10/21 09:53:56;;;;;;;56.60;23.90;;;;;;;10.86;58.04;99293.29;224127;1253;140179;-62
2022/10/21 09:59:04;;;;;;;72.40;28.40;;;;;;;10.98;58.56;99288.64;224177;1252;139542;-62
2022/10/21 10:04:13;;;;;;;73.70;29.00;;;;;;;11.12;58.16;99273.09;223933;1259;139930;-62
2022/10/21 10:09:32;;;;;;;63.60;28.90;;;;;;;11.30;57.91;99259.88;223948;1252;139766;-62
2022/10/21 10:14:38;;;;;;;63.60;27.90;;;;;;;11.41;57.49;99236.66;224690;1243;140491;-62
2022/10/21 10:19:41;;;;;;;47.30;23.50;;;;;;;11.48;57.58;99218.09;223948;1248;139589;-62
2022/10/21 10:24:44;;;;;;;33.10;18.30;;;;;;;11.55;57.34;99205.91;223952;1255;139655;-62
2022/10/21 10:29:59;;;;;;;30.40;16.60;;;;;;;11.69;57.74;99200.27;224040;1254;139510;-59
2022/10/21 10:35:13;;;;;;;33.30;16.10;;;;;;;11.84;57.33;99197.54;224132;1255;139759;-60
2022/10/21 10:40:27;;;;;;;25.60;14.80;;;;;;;11.98;57.33;99186.27;224639;1239;139739;-59
2022/10/21 10:45:31;;;;;;;25.90;14.60;;;;;;;12.12;57.17;99181.14;223942;1252;139928;-59
2022/10/21 10:50:36;;;;;;;29.60;14.70;;;;;;;12.24;57.34;99182.10;223929;1238;139576;-59
2022/10/21 10:55:44;;;;;;;29.80;14.90;;;;;;;12.37;57.18;99177.51;223970;1254;139446;-59
2022/10/21 11:00:50;;;;;;;35.50;16.00;;;;;;;12.45;56.72;99167.14;223866;1247;140043;-59
2022/10/21 11:06:06;;;;;;;29.00;14.60;;;;;;;12.57;56.56;99164.55;224047;1237;139619;-59
2022/10/21 11:11:18;;;;;;;29.00;14.80;;;;;;;12.67;56.16;99148.19;224058;1251;139714;-59
2022/10/21 11:16:38;;;;;;;39.10;15.30;;;;;;;12.74;56.16;99139.57;223947;1251;139089;-59
2022/10/21 11:22:22;;;;;;;25.70;13.80;;;;;;;12.79;55.98;99125.88;224622;1238;139646;-60
2022/10/21 11:28:01;;;;;;;27.90;15.50;;;;;;;12.77;55.77;99118.66;224038;1251;139319;-59
2022/10/21 11:33:22;;;;;;;23.50;10.80;;;;;;;12.77;55.73;99109.80;223381;1254;141000;-59
2022/10/21 11:38:40;;;;;;;17.40;10.30;;;;;;;12.76;55.78;99100.42;223986;1251;139874;-60
2022/10/21 11:44:04;;;;;;;16.10;9.80;;;;;;;12.77;55.78;99079.35;223972;1251;140236;-60
2022/10/21 11:49:39;;;;;;;12.80;8.80;;;;;;;12.78;55.81;99065.89;224704;1241;139508;-59
2022/10/21 11:54:48;;;;;;;14.40;8.60;;;;;;;12.79;55.84;99060.84;223982;1245;139730;-59
2022/10/21 12:00:25;;;;;;;20.00;8.90;;;;;;;12.82;55.73;99056.55;223986;1251;139447;-60
2022/10/21 12:05:45;;;;;;;13.10;9.00;;;;;;;12.91;55.95;99056.30;224804;1244;139356;-59
2022/10/21 12:10:54;;;;;;;12.60;7.30;;;;;;;12.96;56.20;99043.59;223936;1246;139690;-59
2022/10/21 12:16:01;;;;;;;13.40;7.60;;;;;;;13.02;55.89;99025.37;223940;1246;139352;-59
2022/10/21 12:21:06;;;;;;;13.40;7.70;;;;;;;13.11;56.02;99029.56;223944;1254;139332;-59
2022/10/21 12:26:16;;;;;;;14.60;7.70;;;;;;;13.19;56.08;99018.82;224518;1247;139218;-60
2022/10/21 12:31:37;;;;;;;12.00;7.40;;;;;;;13.30;56.12;99010.36;223938;1253;139374;-58
2022/10/21 12:36:40;;;;;;;12.20;7.60;;;;;;;13.41;56.16;99000.27;223908;1255;139610;-59
2022/10/21 12:41:46;;;;;;;14.30;8.30;;;;;;;13.52;55.95;99004.27;224009;1244;139285;-59
2022/10/21 12:46:55;;;;;;;13.90;7.50;;;;;;;13.68;56.33;98997.02;224493;1244;139404;-60
2022/10/21 12:52:21;;;;;;;15.70;8.20;;;;;;;13.83;56.15;98982.87;223909;1252;139461;-59
2022/10/21 12:57:27;;;;;;;;;;;;;;;13.98;56.21;98980.30;223946;1250;139427;-60
2022/10/21 13:02:30;;;;;;;12.20;7.00;;;;;;;14.06;56.05;98976.45;224778;1241;125729;-62
2022/10/21 13:07:34;;;;;;;16.10;7.90;;;;;;;14.11;56.04;98965.52;224022;1249;139053;-62
2022/10/21 13:12:37;;;;;;;13.90;6.90;;;;;;;14.18;55.86;98968.00;224024;1245;139273;-62
2022/10/21 13:17:55;;;;;;;10.20;6.90;;;;;;;14.27;55.90;98971.08;224170;1252;138800;-63
2022/10/21 13:23:30;;;;;;;15.60;6.70;;;;;;;14.37;55.90;98977.08;223903;1247;139201;-62
2022/10/21 13:28:33;;;;;;;11.00;6.80;;;;;;;14.44;55.68;98973.85;223948;1254;139058;-62
2022/10/21 13:33:37;;;;;;;11.40;6.50;;;;;;;14.48;55.56;98968.20;223793;1261;139178;-62
2022/10/21 13:38:50;;;;;;;13.90;7.00;;;;;;;14.52;55.50;98961.13;223990;1251;141474;-62
2022/10/21 13:43:54;;;;;;;16.10;7.00;;;;;;;14.55;55.31;98954.85;224069;1248;139366;-62
2022/10/21 13:49:00;;;;;;;12.90;6.50;;;;;;;14.57;55.28;98948.41;224641;1241;139891;-62
2022/10/21 13:54:14;;;;;;;18.00;6.50;;;;;;;14.59;55.12;98938.42;223931;1252;139700;-62
2022/10/21 13:59:28;;;;;;;12.30;5.80;;;;;;;14.60;55.00;98931.70;224114;1251;139582;-63
2022/10/21 14:04:38;;;;;;;11.10;6.00;;;;;;;14.60;55.01;98931.91;224502;1247;140152;-63
2022/10/21 14:09:45;;;;;;;9.50;5.60;;;;;;;14.60;54.89;98936.71;223969;1255;139894;-63
2022/10/21 14:14:48;;;;;;;8.00;4.80;;;;;;;14.60;54.78;98942.59;223963;1245;139488;-62
2022/10/21 14:20:06;;;;;;;9.60;4.30;;;;;;;14.61;54.62;98944.33;224671;1236;139370;-62
2022/10/21 14:25:14;;;;;;;9.40;4.20;;;;;;;14.59;54.42;98944.65;223894;1245;139481;-63
2022/10/21 14:30:24;;;;;;;8.10;4.50;;;;;;;14.58;54.37;98945.79;224560;1242;139886;-63
2022/10/21 14:35:29;;;;;;;17.00;5.00;;;;;;;14.56;54.28;98946.85;223987;1245;139698;-62
2022/10/21 14:40:36;;;;;;;7.10;5.00;;;;;;;14.53;54.28;98943.86;224552;1244;139610;-62
2022/10/21 14:45:52;;;;;;;12.60;6.20;;;;;;;14.48;54.18;98931.95;223878;1245;139109;-62
2022/10/21 14:51:09;;;;;;;12.10;6.50;;;;;;;14.43;54.17;98929.30;223954;1254;139892;-63
2022/10/21 14:56:21;;;;;;;14.00;6.80;;;;;;;14.37;54.11;98931.92;223874;1247;139604;-63
2022/10/21 15:01:24;;;;;;;11.30;6.60;;;;;;;14.31;54.19;98936.49;223940;1260;139522;-62
2022/10/21 15:06:31;;;;;;;12.90;6.60;;;;;;;14.26;54.35;98935.86;223940;1254;139628;-63
2022/10/21 15:11:37;;;;;;;11.80;6.30;;;;;;;14.18;54.52;98931.58;224078;1252;139010;-61
2022/10/21 15:16:50;;;;;;;12.00;6.40;;;;;;;14.12;54.48;98933.91;224496;1238;139395;-61
2022/10/21 15:21:59;;;;;;;10.70;6.20;;;;;;;14.06;54.63;98942.37;224551;1244;140306;-62
2022/10/21 15:27:04;;;;;;;12.60;6.30;;;;;;;13.99;54.74;98949.20;224526;1244;139436;-60
2022/10/21 15:32:11;;;;;;;10.40;6.10;;;;;;;13.93;54.70;98954.41;223904;1254;139249;-61
2022/10/21 15:37:13;;;;;;;11.30;5.50;;;;;;;13.89;54.71;98957.95;223830;1252;139336;-61
2022/10/21 15:42:18;;;;;;;17.40;7.00;;;;;;;13.86;54.59;98964.13;223877;1244;139574;-61
2022/10/21 15:47:23;;;;;;;12.80;7.10;;;;;;;13.84;54.65;98970.64;224726;1238;139426;-61
2022/10/21 15:52:26;;;;;;;17.10;8.00;;;;;;;13.81;54.60;98969.11;223992;1245;139220;-61
2022/10/21 15:57:29;;;;;;;22.20;9.20;;;;;;;13.76;54.83;98974.48;223976;1252;139156;-61
2022/10/21 16:02:38;;;;;;;17.90;9.40;;;;;;;13.71;54.70;98970.55;224729;1230;139506;-61
2022/10/21 16:07:41;;;;;;;19.10;9.10;;;;;;;13.67;55.05;98978.55;224694;1248;140311;-61
2022/10/21 16:12:45;;;;;;;22.00;9.20;;;;;;;13.64;55.17;98984.27;224737;1244;139564;-61
2022/10/21 16:17:52;;;;;;;21.50;10.40;;;;;;;13.65;55.22;98990.84;224778;1241;140471;-61
2022/10/21 16:22:58;;;;;;;20.40;9.70;;;;;;;13.63;55.47;98999.01;224595;1244;141690;-61
2022/10/21 16:28:05;;;;;;;15.90;9.50;;;;;;;13.60;55.50;98997.98;224077;1245;139975;-61
2022/10/21 16:33:09;;;;;;;20.50;10.30;;;;;;;13.56;55.63;99002.38;224039;1245;139148;-60
2022/10/21 16:38:13;;;;;;;20.40;10.20;;;;;;;13.51;55.87;99006.14;224754;1244;139339;-60
2022/10/21 16:43:16;;;;;;;15.80;9.50;;;;;;;13.48;56.01;99002.96;224065;1254;139426;-60
2022/10/21 16:48:19;;;;;;;23.10;10.70;;;;;;;13.43;56.15;99004.90;224688;1244;139280;-61
2022/10/21 16:53:22;;;;;;;17.10;10.80;;;;;;;13.41;56.17;99003.33;224180;1250;139397;-60
2022/10/21 16:58:25;;;;;;;20.30;11.50;;;;;;;13.43;57.24;99004.55;224027;1254;139303;-62
2022/10/21 17:03:28;;;;;;;15.70;9.50;;;;;;;14.74;62.10;99001.80;224042;1251;139723;-62
2022/10/21 17:08:31;;;;;;;22.70;10.20;;;;;;;16.23;61.40;99000.58;224032;1255;140546;-61
2022/10/21 17:13:34;;;;;;;20.50;11.80;;;;;;;17.15;59.65;99004.36;224053;1252;139316;-61
2022/10/21 17:18:38;;;;;;;24.70;13.20;;;;;;;17.57;57.88;99002.20;224042;1255;140107;-61
2022/10/21 17:23:41;;;;;;;27.80;13.60;;;;;;;17.76;56.61;99000.64;224146;1253;139011;-61
2022/10/21 17:28:44;;;;;;;24.00;13.60;;;;;;;17.90;55.80;99003.83;224138;1255;139263;-61
2022/10/21 17:33:49;;;;;;;24.40;14.70;;;;;;;17.92;54.97;99006.54;224681;1246;139331;-62
2022/10/21 17:38:52;;;;;;;28.70;15.80;;;;;;;17.92;54.06;99008.33;224054;1251;139172;-62
2022/10/21 17:43:56;;;;;;;27.90;15.90;;;;;;;17.81;53.80;99004.70;224767;1243;139552;-63
2022/10/21 17:48:58;;;;;;;31.40;17.30;;;;;;;17.80;53.60;99007.25;223916;1250;139392;-61
2022/10/21 17:54:02;;;;;;;33.90;15.80;;;;;;;17.77;53.20;99001.80;224224;1255;139048;-62
2022/10/21 17:59:05;;;;;;;28.80;16.70;;;;;;;17.49;52.29;99000.27;224106;1251;139303;-61
2022/10/21 18:08:44;;;;;;;39.00;20.10;;;;;;;17.16;51.66;98996.98;222819;1249;635732;-62
2022/10/21 18:13:47;;;;;;;28.00;17.40;;;;;;;16.61;50.76;98996.38;225871;1239;138416;-61
2022/10/21 18:18:57;;;;;;;34.40;17.20;;;;;;;15.91;50.91;98999.59;225670;1248;139830;-61
2022/10/21 18:24:04;;;;;;;32.40;17.30;;;;;;;15.32;51.47;98998.41;226904;1237;138244;-62
2022/10/21 18:29:15;;;;;;;30.00;16.70;;;;;;;14.90;51.84;98986.83;227374;1240;139724;-61
2022/10/21 18:34:18;;;;;;;26.50;15.30;;;;;;;14.59;52.55;98990.18;227333;1248;138484;-60
2022/10/21 18:39:21;;;;;;;72.30;49.40;;;;;;;14.38;53.07;98982.67;227734;1222;138938;-61
2022/10/21 18:44:25;;;;;;;27.10;14.30;;;;;;;14.26;53.60;98981.01;227595;1241;140138;-61
2022/10/21 18:49:28;;;;;;;25.80;12.30;;;;;;;14.18;53.84;98982.29;227091;1238;137927;-60
2022/10/21 18:54:31;;;;;;;20.70;12.20;;;;;;;14.12;54.09;98981.13;227119;1234;138319;-61
2022/10/21 18:59:35;;;;;;;24.40;11.20;;;;;;;14.10;54.27;98974.00;226890;1237;138303;-60
2022/10/21 19:04:38;;;;;;;21.60;11.50;;;;;;;14.05;54.36;98965.13;226826;1234;138706;-61
2022/10/21 19:09:41;;;;;;;21.40;10.60;;;;;;;13.99;54.56;98970.02;226938;1241;139075;-60
2022/10/21 19:14:44;;;;;;;19.50;11.20;;;;;;;13.93;54.81;98976.73;227836;1239;139700;-60
2022/10/21 19:19:48;;;;;;;20.10;10.50;;;;;;;13.90;54.97;98973.92;226737;1248;139094;-61
2022/10/21 19:24:52;;;;;;;21.40;10.70;;;;;;;13.89;55.08;98968.34;226833;1248;138415;-60
2022/10/21 19:29:54;;;;;;;27.80;11.30;;;;;;;13.84;55.23;98970.30;227866;1224;138685;-61
2022/10/21 19:34:57;;;;;;;24.30;11.50;;;;;;;13.80;55.33;98971.52;227795;1228;139311;-61
2022/10/21 19:40:00;;;;;;;26.20;11.40;;;;;;;13.78;55.60;98964.17;227591;1226;139228;-60
2022/10/21 19:45:04;;;;;;;23.20;13.30;;;;;;;13.77;55.81;98962.86;226877;1243;138794;-60
2022/10/21 19:50:07;;;;;;;28.30;13.50;;;;;;;13.78;56.10;98963.64;226696;1240;138948;-60
2022/10/21 19:55:11;;;;;;;22.90;12.90;;;;;;;13.76;55.96;98956.84;226595;1241;138665;-61
2022/10/21 20:00:14;;;;;;;28.40;13.30;;;;;;;13.71;56.25;98951.34;226398;1227;138718;-60
2022/10/21 20:05:17;;;;;;;20.20;12.70;;;;;;;13.63;56.43;98944.84;226669;1244;139299;-61
2022/10/21 20:10:22;;;;;;;23.20;12.60;;;;;;;13.53;56.74;98939.30;226617;1245;139541;-60
2022/10/21 20:15:25;;;;;;;24.10;12.40;;;;;;;13.43;57.13;98933.10;226700;1237;139180;-60
2022/10/21 20:20:28;;;;;;;27.30;13.10;;;;;;;13.41;57.53;98919.36;226454;1237;139006;-59
2022/10/21 20:25:31;;;;;;;30.00;13.70;;;;;;;13.43;57.81;98901.58;226555;1240;138680;-61
2022/10/21 20:30:34;;;;;;;32.70;14.30;;;;;;;13.41;57.97;98887.86;226530;1234;139074;-60
2022/10/21 20:35:41;;;;;;;27.20;14.10;;;;;;;13.40;58.24;98878.85;226704;1249;138943;-61
2022/10/21 20:40:53;;;;;;;29.80;15.10;;;;;;;13.34;58.28;98871.63;226694;1233;139582;-60
2022/10/21 20:46:01;;;;;;;27.20;14.30;;;;;;;13.27;58.39;98868.95;226563;1240;138948;-60
2022/10/21 20:51:07;;;;;;;29.50;14.70;;;;;;;13.19;58.54;98876.50;226702;1244;138744;-60
2022/10/21 20:56:10;;;;;;;25.30;14.40;;;;;;;13.09;58.66;98877.93;226322;1241;139839;-60
2022/10/21 21:01:26;;;;;;;27.90;15.10;;;;;;;13.02;58.81;98884.15;226681;1238;139221;-60
2022/10/21 21:06:33;;;;;;;39.90;25.10;;;;;;;13.04;59.27;98889.71;226714;1237;139773;-61
2022/10/21 21:11:37;;;;;;;29.00;14.70;;;;;;;13.09;59.23;98895.04;227595;1233;139145;-60
2022/10/21 21:16:40;;;;;;;29.40;13.80;;;;;;;13.05;59.18;98885.49;226688;1233;139143;-62
2022/10/21 21:21:43;;;;;;;25.90;13.30;;;;;;;12.99;59.43;98884.01;227535;1239;139179;-63
2022/10/21 21:26:46;;;;;;;36.10;18.70;;;;;;;12.98;59.62;98888.91;227540;1234;139179;-62
2022/10/21 21:31:49;;;;;;;25.80;14.60;;;;;;;13.20;60.23;98881.70;227518;1227;139254;-62
2022/10/21 21:36:52;;;;;;;26.60;13.70;;;;;;;13.21;59.94;98884.64;226719;1237;139299;-62
2022/10/21 21:41:55;;;;;;;29.80;14.90;;;;;;;13.16;59.78;98881.00;226817;1249;139702;-61
2022/10/21 21:46:58;;;;;;;35.10;14.50;;;;;;;13.15;59.90;98874.10;227460;1229;139304;-62
2022/10/21 21:52:01;;;;;;;23.80;14.60;;;;;;;13.09;60.05;98882.73;226584;1241;138681;-61
2022/10/21 21:57:04;;;;;;;32.90;15.40;;;;;;;13.02;59.79;98872.59;226501;1244;139659;-60
2022/10/21 22:02:27;;;;;;;26.90;14.60;;;;;;;12.95;60.12;98860.09;227476;1230;138524;-62
2022/10/21 22:07:31;;;;;;;35.80;15.40;;;;;;;12.86;60.25;98865.05;227482;1233;138817;-61
2022/10/21 22:12:34;;;;;;;34.40;15.70;;;;;;;12.76;60.24;98866.34;226674;1241;139896;-60
2022/10/21 22:17:38;;;;;;;26.60;15.70;;;;;;;12.66;60.49;98868.10;227625;1226;138789;-61
2022/10/21 22:22:42;;;;;;;25.10;13.60;;;;;;;12.56;60.36;98871.54;226528;1240;139324;-61
2022/10/21 22:27:45;;;;;;;31.40;15.70;;;;;;;12.53;60.45;98880.47;226486;1241;139776;-61
2022/10/21 22:32:48;;;;;;;29.10;14.70;;;;;;;12.52;60.74;98897.78;226649;1238;139648;-62
2022/10/21 22:37:51;;;;;;;30.70;17.00;;;;;;;12.52;60.72;98900.61;227520;1234;138825;-62
2022/10/21 22:42:54;;;;;;;33.50;19.10;;;;;;;12.56;60.68;98901.20;226557;1239;138956;-62
2022/10/21 22:47:57;;;;;;;33.50;20.00;;;;;;;12.63;60.75;98896.85;227591;1230;138829;-62
2022/10/21 22:53:01;;;;;;;37.20;21.00;;;;;;;12.67;60.56;98892.45;227459;1233;138757;-62
2022/10/21 22:58:05;;;;;;;39.70;21.90;;;;;;;12.69;60.41;98894.60;226250;1247;139294;-62
2022/10/21 23:03:08;;;;;;;40.30;23.50;;;;;;;12.70;60.60;98894.38;227301;1242;138982;-62
2022/10/21 23:08:11;;;;;;;46.00;26.10;;;;;;;12.73;60.04;98897.88;226355;1236;139311;-62
2022/10/21 23:13:15;;;;;;;41.90;26.70;;;;;;;12.77;60.16;98891.14;227328;1237;138836;-62